sensor_id;sensor_type;location;lat;lon;timestamp;temperature;humidity
4314;DHT22;2170;48.794;9.182;2023-09-19T00:00:25;17.90;99.90
4314;DHT22;2170;48.794;9.182;2023-09-19T00:02:53;17.90;99.90
4314;DHT22;2170;48.794;9.182;2023-09-19T00:05:20;17.80;99.90
4314;DHT22;2170;48.794;9.182;2023-09-19T00:07:50;17.80;99.90
4314;DHT22;2170;48.794;9.182;2023-09-19T00:10:19;17.90;99.90
4314;DHT22;2170;48.794;9.182;2023-09-19T00:12:47;17.80;99.90
4314;DHT22;2170;48.794;9.182;2023-09-19T00:15:15;17.80;99.90
4314;DHT22;2170;48.794;9.182;2023-09-19T00:17:43;18.10;99.90
4314;DHT22;2170;48.794;9.182;2023-09-19T00:20:10;17.80;99.90
4314;DHT22;2170;48.794;9.182;2023-09-19T00:22:39;17.70;99.90
4314;DHT22;2170;48.794;9.182;2023-09-19T00:25:07;17.70;99.90
4314;DHT22;2170;48.794;9.182;2023-09-19T00:27:34;17.70;99.90
4314;DHT22;2170;48.794;9.182;2023-09-19T00:30:00;17.70;99.90
4314;DHT22;2170;48.794;9.182;2023-09-19T00:32:31;17.70;99.90
4314;DHT22;2170;48.794;9.182;2023-09-19T00:34:58;17.70;99.90
4314;DHT22;2170;48.794;9.182;2023-09-19T00:37:24;17.70;99.90
4314;DHT22;2170;48.794;9.182;2023-09-19T00:39:51;17.60;99.90
4314;DHT22;2170;48.794;9.182;2023-09-19T00:42:18;17.60;99.90
4314;DHT22;2170;48.794;9.182;2023-09-19T00:44:46;17.70;99.90
4314;DHT22;2170;48.794;9.182;2023-09-19T00:47:16;17.70;99.90
4314;DHT22;2170;48.794;9.182;2023-09-19T00:49:45;17.60;99.90
4314;DHT22;2170;48.794;9.182;2023-09-19T00:52:14;17.80;99.90
4314;DHT22;2170;48.794;9.182;2023-09-19T00:54:45;17.60;99.90
4314;DHT22;2170;48.794;9.182;2023-09-19T00:57:12;17.60;99.90
4314;DHT22;2170;48.794;9.182;2023-09-19T00:59:41;17.50;99.90
4314;DHT22;2170;48.794;9.182;2023-09-19T01:02:08;17.50;99.90
4314;DHT22;2170;48.794;9.182;2023-09-19T01:04:36;17.60;99.90
4314;DHT22;2170;48.794;9.182;2023-09-19T01:07:05;17.50;99.90
4314;DHT22;2170;48.794;9.182;2023-09-19T01:09:31;17.70;99.90
4314;DHT22;2170;48.794;9.182;2023-09-19T01:12:02;17.50;99.90
4314;DHT22;2170;48.794;9.182;2023-09-19T01:14:38;17.50;99.90
4314;DHT22;2170;48.794;9.182;2023-09-19T01:17:14;17.50;99.90
4314;DHT22;2170;48.794;9.182;2023-09-19T01:20:11;17.50;99.90
4314;DHT22;2170;48.794;9.182;2023-09-19T01:22:50;17.50;99.90
4314;DHT22;2170;48.794;9.182;2023-09-19T01:25:34;17.40;99.90
4314;DHT22;2170;48.794;9.182;2023-09-19T01:28:20;17.40;99.90
4314;DHT22;2170;48.794;9.182;2023-09-19T01:30:58;17.40;99.90
4314;DHT22;2170;48.794;9.182;2023-09-19T01:33:25;17.40;99.90
4314;DHT22;2170;48.794;9.182;2023-09-19T01:35:52;17.40;99.90
4314;DHT22;2170;48.794;9.182;2023-09-19T01:38:24;17.40;99.90
4314;DHT22;2170;48.794;9.182;2023-09-19T01:40:58;17.50;99.90
4314;DHT22;2170;48.794;9.182;2023-09-19T01:43:33;17.50;99.90
4314;DHT22;2170;48.794;9.182;2023-09-19T01:46:09;17.40;99.90
4314;DHT22;2170;48.794;9.182;2023-09-19T01:48:42;17.50;99.90
4314;DHT22;2170;48.794;9.182;2023-09-19T01:51:15;17.50;99.90
4314;DHT22;2170;48.794;9.182;2023-09-19T01:53:51;17.50;99.90
4314;DHT22;2170;48.794;9.182;2023-09-19T01:56:25;17.50;99.90
4314;DHT22;2170;48.794;9.182;2023-09-19T01:58:56;17.50;99.90
4314;DHT22;2170;48.794;9.182;2023-09-19T02:01:27;17.50;99.90
4314;DHT22;2170;48.794;9.182;2023-09-19T02:03:54;17.50;99.90
4314;DHT22;2170;48.794;9.182;2023-09-19T02:06:22;17.60;99.90
4314;DHT22;2170;48.794;9.182;2023-09-19T02:08:50;17.50;99.90
4314;DHT22;2170;48.794;9.182;2023-09-19T02:11:17;17.50;99.90
4314;DHT22;2170;48.794;9.182;2023-09-19T02:13:44;17.50;99.90
4314;DHT22;2170;48.794;9.182;2023-09-19T02:16:11;17.50;99.90
4314;DHT22;2170;48.794;9.182;2023-09-19T02:18:39;17.50;99.90
4314;DHT22;2170;48.794;9.182;2023-09-19T02:21:06;17.40;99.90
4314;DHT22;2170;48.794;9.182;2023-09-19T02:23:34;17.40;99.90
4314;DHT22;2170;48.794;9.182;2023-09-19T02:26:01;17.40;99.90
4314;DHT22;2170;48.794;9.182;2023-09-19T02:28:29;17.40;99.90
4314;DHT22;2170;48.794;9.182;2023-09-19T02:30:57;17.40;99.90
4314;DHT22;2170;48.794;9.182;2023-09-19T02:33:24;17.40;99.90
4314;DHT22;2170;48.794;9.182;2023-09-19T02:35:56;17.40;99.90
4314;DHT22;2170;48.794;9.182;2023-09-19T02:38:23;17.40;99.90
4314;DHT22;2170;48.794;9.182;2023-09-19T02:40:51;17.40;99.90
4314;DHT22;2170;48.794;9.182;2023-09-19T02:43:18;17.40;99.90
4314;DHT22;2170;48.794;9.182;2023-09-19T02:45:46;17.40;99.90
4314;DHT22;2170;48.794;9.182;2023-09-19T02:48:15;17.30;99.90
4314;DHT22;2170;48.794;9.182;2023-09-19T02:50:42;17.30;99.90
4314;DHT22;2170;48.794;9.182;2023-09-19T02:53:11;17.30;99.90
4314;DHT22;2170;48.794;9.182;2023-09-19T02:55:38;17.40;99.90
4314;DHT22;2170;48.794;9.182;2023-09-19T02:58:06;17.30;99.90
4314;DHT22;2170;48.794;9.182;2023-09-19T03:00:35;17.30;99.90
4314;DHT22;2170;48.794;9.182;2023-09-19T03:03:02;17.30;99.90
4314;DHT22;2170;48.794;9.182;2023-09-19T03:05:34;17.20;99.90
4314;DHT22;2170;48.794;9.182;2023-09-19T03:08:01;17.30;99.90
4314;DHT22;2170;48.794;9.182;2023-09-19T03:10:31;17.20;99.90
4314;DHT22;2170;48.794;9.182;2023-09-19T03:12:58;17.20;99.90
4314;DHT22;2170;48.794;9.182;2023-09-19T03:15:25;17.20;99.90
4314;DHT22;2170;48.794;9.182;2023-09-19T03:17:52;17.30;99.90
4314;DHT22;2170;48.794;9.182;2023-09-19T03:20:19;17.50;99.90
4314;DHT22;2170;48.794;9.182;2023-09-19T03:22:46;17.30;99.90
4314;DHT22;2170;48.794;9.182;2023-09-19T03:25:13;17.30;99.90
4314;DHT22;2170;48.794;9.182;2023-09-19T03:27:42;17.30;99.90
4314;DHT22;2170;48.794;9.182;2023-09-19T03:30:09;17.30;99.90
4314;DHT22;2170;48.794;9.182;2023-09-19T03:32:43;17.30;99.90
4314;DHT22;2170;48.794;9.182;2023-09-19T03:35:12;17.30;99.90
4314;DHT22;2170;48.794;9.182;2023-09-19T03:37:39;17.30;99.90
4314;DHT22;2170;48.794;9.182;2023-09-19T03:40:07;17.30;99.90
4314;DHT22;2170;48.794;9.182;2023-09-19T03:42:38;17.30;99.90
4314;DHT22;2170;48.794;9.182;2023-09-19T03:45:07;17.30;99.90
4314;DHT22;2170;48.794;9.182;2023-09-19T03:47:37;17.30;99.90
4314;DHT22;2170;48.794;9.182;2023-09-19T03:50:05;17.30;99.90
4314;DHT22;2170;48.794;9.182;2023-09-19T03:52:32;17.30;99.90
4314;DHT22;2170;48.794;9.182;2023-09-19T03:54:59;17.30;99.90
4314;DHT22;2170;48.794;9.182;2023-09-19T03:57:26;17.30;99.90
4314;DHT22;2170;48.794;9.182;2023-09-19T03:59:53;17.50;99.90
4314;DHT22;2170;48.794;9.182;2023-09-19T04:02:22;17.50;99.90
4314;DHT22;2170;48.794;9.182;2023-09-19T04:04:50;17.40;99.90
4314;DHT22;2170;48.794;9.182;2023-09-19T04:07:17;17.20;99.90
4314;DHT22;2170;48.794;9.182;2023-09-19T04:09:44;17.20;99.90
4314;DHT22;2170;48.794;9.182;2023-09-19T04:12:11;17.50;99.90
4314;DHT22;2170;48.794;9.182;2023-09-19T04:14:40;17.30;99.90
4314;DHT22;2170;48.794;9.182;2023-09-19T04:17:07;17.20;99.90
4314;DHT22;2170;48.794;9.182;2023-09-19T04:19:37;17.20;99.90
4314;DHT22;2170;48.794;9.182;2023-09-19T04:22:03;17.20;99.90
4314;DHT22;2170;48.794;9.182;2023-09-19T04:24:30;17.30;99.90
4314;DHT22;2170;48.794;9.182;2023-09-19T04:26:57;17.30;99.90
4314;DHT22;2170;48.794;9.182;2023-09-19T04:29:25;17.50;99.90
4314;DHT22;2170;48.794;9.182;2023-09-19T04:31:55;17.30;99.90
4314;DHT22;2170;48.794;9.182;2023-09-19T04:34:22;17.30;99.90
4314;DHT22;2170;48.794;9.182;2023-09-19T04:36:51;17.30;99.90
4314;DHT22;2170;48.794;9.182;2023-09-19T04:39:18;17.30;99.90
4314;DHT22;2170;48.794;9.182;2023-09-19T04:41:46;17.30;99.90
4314;DHT22;2170;48.794;9.182;2023-09-19T04:44:13;17.30;99.90
4314;DHT22;2170;48.794;9.182;2023-09-19T04:46:40;17.30;99.90
4314;DHT22;2170;48.794;9.182;2023-09-19T04:49:06;17.30;99.90
4314;DHT22;2170;48.794;9.182;2023-09-19T04:51:33;17.30;99.90
4314;DHT22;2170;48.794;9.182;2023-09-19T04:54:03;17.30;99.90
4314;DHT22;2170;48.794;9.182;2023-09-19T04:56:30;17.20;99.90
4314;DHT22;2170;48.794;9.182;2023-09-19T04:58:57;17.20;99.90
4314;DHT22;2170;48.794;9.182;2023-09-19T05:01:24;17.20;99.90
4314;DHT22;2170;48.794;9.182;2023-09-19T05:03:51;17.10;99.90
4314;DHT22;2170;48.794;9.182;2023-09-19T05:06:18;17.00;99.90
4314;DHT22;2170;48.794;9.182;2023-09-19T05:08:45;17.00;99.90
4314;DHT22;2170;48.794;9.182;2023-09-19T05:11:14;17.20;99.90
4314;DHT22;2170;48.794;9.182;2023-09-19T05:13:40;17.00;99.90
4314;DHT22;2170;48.794;9.182;2023-09-19T05:16:08;17.00;99.90
4314;DHT22;2170;48.794;9.182;2023-09-19T05:18:35;17.00;99.90
4314;DHT22;2170;48.794;9.182;2023-09-19T05:21:02;16.90;99.90
4314;DHT22;2170;48.794;9.182;2023-09-19T05:23:29;17.10;99.90
4314;DHT22;2170;48.794;9.182;2023-09-19T05:25:56;16.90;99.90
4314;DHT22;2170;48.794;9.182;2023-09-19T05:28:26;17.10;99.90
4314;DHT22;2170;48.794;9.182;2023-09-19T05:30:53;16.80;99.90
4314;DHT22;2170;48.794;9.182;2023-09-19T05:33:20;16.90;99.90
4314;DHT22;2170;48.794;9.182;2023-09-19T05:35:48;16.90;99.90
4314;DHT22;2170;48.794;9.182;2023-09-19T05:38:14;16.90;99.90
4314;DHT22;2170;48.794;9.182;2023-09-19T05:40:45;16.90;99.90
4314;DHT22;2170;48.794;9.182;2023-09-19T05:43:12;17.00;99.90
4314;DHT22;2170;48.794;9.182;2023-09-19T05:45:40;16.70;99.90
4314;DHT22;2170;48.794;9.182;2023-09-19T05:48:08;16.50;99.90
4314;DHT22;2170;48.794;9.182;2023-09-19T05:50:35;16.50;99.90
4314;DHT22;2170;48.794;9.182;2023-09-19T05:53:02;16.40;99.90
4314;DHT22;2170;48.794;9.182;2023-09-19T05:55:30;16.30;99.90
4314;DHT22;2170;48.794;9.182;2023-09-19T05:57:56;16.20;99.90
4314;DHT22;2170;48.794;9.182;2023-09-19T06:00:24;16.20;99.90
4314;DHT22;2170;48.794;9.182;2023-09-19T06:02:54;16.20;99.90
4314;DHT22;2170;48.794;9.182;2023-09-19T06:05:22;16.20;99.90
4314;DHT22;2170;48.794;9.182;2023-09-19T06:07:49;16.20;99.90
4314;DHT22;2170;48.794;9.182;2023-09-19T06:10:17;16.30;99.90
4314;DHT22;2170;48.794;9.182;2023-09-19T06:12:46;16.20;99.90
4314;DHT22;2170;48.794;9.182;2023-09-19T06:15:14;16.30;99.90
4314;DHT22;2170;48.794;9.182;2023-09-19T06:17:42;16.20;99.90
4314;DHT22;2170;48.794;9.182;2023-09-19T06:20:11;16.20;99.90
4314;DHT22;2170;48.794;9.182;2023-09-19T06:22:40;16.10;99.90
4314;DHT22;2170;48.794;9.182;2023-09-19T06:25:08;16.10;99.90
4314;DHT22;2170;48.794;9.182;2023-09-19T06:27:37;16.00;99.90
4314;DHT22;2170;48.794;9.182;2023-09-19T06:30:05;16.00;99.90
4314;DHT22;2170;48.794;9.182;2023-09-19T06:32:33;16.10;99.90
4314;DHT22;2170;48.794;9.182;2023-09-19T06:34:59;16.10;99.90
4314;DHT22;2170;48.794;9.182;2023-09-19T06:37:29;16.10;99.90
4314;DHT22;2170;48.794;9.182;2023-09-19T06:39:56;15.90;99.90
4314;DHT22;2170;48.794;9.182;2023-09-19T06:42:22;16.20;99.90
4314;DHT22;2170;48.794;9.182;2023-09-19T06:44:49;16.20;99.90
4314;DHT22;2170;48.794;9.182;2023-09-19T06:47:17;16.20;99.90
4314;DHT22;2170;48.794;9.182;2023-09-19T06:49:43;16.20;99.90
4314;DHT22;2170;48.794;9.182;2023-09-19T06:52:10;16.30;99.90
4314;DHT22;2170;48.794;9.182;2023-09-19T06:54:38;16.30;99.90
4314;DHT22;2170;48.794;9.182;2023-09-19T06:57:05;16.30;99.90
4314;DHT22;2170;48.794;9.182;2023-09-19T06:59:35;16.30;99.90
4314;DHT22;2170;48.794;9.182;2023-09-19T07:02:02;16.40;99.90
4314;DHT22;2170;48.794;9.182;2023-09-19T07:04:31;16.40;99.90
4314;DHT22;2170;48.794;9.182;2023-09-19T07:06:58;16.50;99.90
4314;DHT22;2170;48.794;9.182;2023-09-19T07:09:24;16.60;99.90
4314;DHT22;2170;48.794;9.182;2023-09-19T07:11:54;16.60;99.90
4314;DHT22;2170;48.794;9.182;2023-09-19T07:14:21;16.70;99.90
4314;DHT22;2170;48.794;9.182;2023-09-19T07:16:48;16.70;99.90
4314;DHT22;2170;48.794;9.182;2023-09-19T07:19:16;16.80;99.90
4314;DHT22;2170;48.794;9.182;2023-09-19T07:21:42;16.90;99.90
4314;DHT22;2170;48.794;9.182;2023-09-19T07:24:09;16.90;99.90
4314;DHT22;2170;48.794;9.182;2023-09-19T07:26:36;16.90;99.90
4314;DHT22;2170;48.794;9.182;2023-09-19T07:29:04;17.00;99.90
4314;DHT22;2170;48.794;9.182;2023-09-19T07:31:32;17.10;99.90
4314;DHT22;2170;48.794;9.182;2023-09-19T07:33:59;17.10;99.90
4314;DHT22;2170;48.794;9.182;2023-09-19T07:36:25;17.10;99.90
4314;DHT22;2170;48.794;9.182;2023-09-19T07:38:55;17.00;99.90
4314;DHT22;2170;48.794;9.182;2023-09-19T07:41:23;17.10;99.90
4314;DHT22;2170;48.794;9.182;2023-09-19T07:43:51;17.40;99.90
4314;DHT22;2170;48.794;9.182;2023-09-19T07:46:19;17.30;99.90
4314;DHT22;2170;48.794;9.182;2023-09-19T07:48:46;17.30;99.90
4314;DHT22;2170;48.794;9.182;2023-09-19T07:51:14;17.40;99.90
4314;DHT22;2170;48.794;9.182;2023-09-19T07:53:42;17.50;99.90
4314;DHT22;2170;48.794;9.182;2023-09-19T07:56:10;17.50;99.90
4314;DHT22;2170;48.794;9.182;2023-09-19T07:58:39;17.60;99.90
4314;DHT22;2170;48.794;9.182;2023-09-19T08:01:07;17.80;99.90
4314;DHT22;2170;48.794;9.182;2023-09-19T08:03:37;17.80;99.90
4314;DHT22;2170;48.794;9.182;2023-09-19T08:06:06;17.90;99.90
4314;DHT22;2170;48.794;9.182;2023-09-19T08:08:33;17.90;99.90
4314;DHT22;2170;48.794;9.182;2023-09-19T08:11:03;18.30;99.90
4314;DHT22;2170;48.794;9.182;2023-09-19T08:13:36;18.10;99.90
4314;DHT22;2170;48.794;9.182;2023-09-19T08:16:03;18.50;99.90
4314;DHT22;2170;48.794;9.182;2023-09-19T08:18:30;18.70;99.90
4314;DHT22;2170;48.794;9.182;2023-09-19T08:20:58;18.80;99.90
4314;DHT22;2170;48.794;9.182;2023-09-19T08:23:26;18.90;99.90
4314;DHT22;2170;48.794;9.182;2023-09-19T08:25:56;18.90;99.90
4314;DHT22;2170;48.794;9.182;2023-09-19T08:28:23;19.00;99.90
4314;DHT22;2170;48.794;9.182;2023-09-19T08:30:50;19.00;99.90
4314;DHT22;2170;48.794;9.182;2023-09-19T08:33:17;19.10;99.90
4314;DHT22;2170;48.794;9.182;2023-09-19T08:35:45;19.20;99.90
4314;DHT22;2170;48.794;9.182;2023-09-19T08:38:13;19.20;99.90
4314;DHT22;2170;48.794;9.182;2023-09-19T08:40:43;19.40;99.90
4314;DHT22;2170;48.794;9.182;2023-09-19T08:43:09;19.40;99.90
4314;DHT22;2170;48.794;9.182;2023-09-19T08:45:36;19.30;99.90
4314;DHT22;2170;48.794;9.182;2023-09-19T08:48:16;19.80;99.90
4314;DHT22;2170;48.794;9.182;2023-09-19T08:50:49;19.80;99.90
4314;DHT22;2170;48.794;9.182;2023-09-19T08:53:23;19.80;99.90
4314;DHT22;2170;48.794;9.182;2023-09-19T08:55:53;20.00;99.90
4314;DHT22;2170;48.794;9.182;2023-09-19T08:58:21;19.90;99.90
4314;DHT22;2170;48.794;9.182;2023-09-19T09:00:54;20.00;99.90
4314;DHT22;2170;48.794;9.182;2023-09-19T09:03:22;20.00;99.90
4314;DHT22;2170;48.794;9.182;2023-09-19T09:05:50;19.90;99.90
4314;DHT22;2170;48.794;9.182;2023-09-19T09:08:19;20.00;99.90
4314;DHT22;2170;48.794;9.182;2023-09-19T09:10:48;20.30;99.90
4314;DHT22;2170;48.794;9.182;2023-09-19T09:13:16;20.50;99.90
4314;DHT22;2170;48.794;9.182;2023-09-19T09:15:44;20.40;99.90
4314;DHT22;2170;48.794;9.182;2023-09-19T09:18:11;20.40;99.90
4314;DHT22;2170;48.794;9.182;2023-09-19T09:20:38;20.60;99.90
4314;DHT22;2170;48.794;9.182;2023-09-19T09:23:05;20.50;99.90
4314;DHT22;2170;48.794;9.182;2023-09-19T09:25:50;20.50;99.90
4314;DHT22;2170;48.794;9.182;2023-09-19T09:28:21;20.80;99.90
4314;DHT22;2170;48.794;9.182;2023-09-19T09:30:48;20.70;99.90
4314;DHT22;2170;48.794;9.182;2023-09-19T09:33:16;20.70;99.90
4314;DHT22;2170;48.794;9.182;2023-09-19T09:35:50;20.80;99.90
4314;DHT22;2170;48.794;9.182;2023-09-19T09:38:19;21.20;99.90
4314;DHT22;2170;48.794;9.182;2023-09-19T09:40:47;21.40;99.90
4314;DHT22;2170;48.794;9.182;2023-09-19T09:43:30;21.70;99.90
4314;DHT22;2170;48.794;9.182;2023-09-19T09:46:11;21.70;99.90
4314;DHT22;2170;48.794;9.182;2023-09-19T09:48:56;21.60;99.90
4314;DHT22;2170;48.794;9.182;2023-09-19T09:51:58;21.80;99.90
4314;DHT22;2170;48.794;9.182;2023-09-19T09:54:26;21.90;99.90
4314;DHT22;2170;48.794;9.182;2023-09-19T09:57:00;21.60;99.90
4314;DHT22;2170;48.794;9.182;2023-09-19T09:59:49;22.10;99.90
4314;DHT22;2170;48.794;9.182;2023-09-19T10:02:17;22.20;99.90
4314;DHT22;2170;48.794;9.182;2023-09-19T10:04:51;22.30;99.90
4314;DHT22;2170;48.794;9.182;2023-09-19T10:07:27;22.40;99.90
4314;DHT22;2170;48.794;9.182;2023-09-19T10:09:58;22.40;99.90
4314;DHT22;2170;48.794;9.182;2023-09-19T10:12:31;21.80;99.90
4314;DHT22;2170;48.794;9.182;2023-09-19T10:15:00;21.70;99.90
4314;DHT22;2170;48.794;9.182;2023-09-19T10:17:29;21.60;99.90
4314;DHT22;2170;48.794;9.182;2023-09-19T10:19:57;21.60;99.90
4314;DHT22;2170;48.794;9.182;2023-09-19T10:22:28;21.60;99.90
4314;DHT22;2170;48.794;9.182;2023-09-19T10:24:58;21.30;99.90
4314;DHT22;2170;48.794;9.182;2023-09-19T10:27:26;21.00;99.90
4314;DHT22;2170;48.794;9.182;2023-09-19T10:29:55;21.60;99.90
4314;DHT22;2170;48.794;9.182;2023-09-19T10:32:26;21.70;99.90
4314;DHT22;2170;48.794;9.182;2023-09-19T10:34:55;22.30;99.90
4314;DHT22;2170;48.794;9.182;2023-09-19T10:37:24;22.20;99.90
4314;DHT22;2170;48.794;9.182;2023-09-19T10:39:55;22.20;99.90
4314;DHT22;2170;48.794;9.182;2023-09-19T10:42:23;22.10;99.90
4314;DHT22;2170;48.794;9.182;2023-09-19T10:44:55;21.80;99.90
4314;DHT22;2170;48.794;9.182;2023-09-19T10:47:25;21.70;99.90
4314;DHT22;2170;48.794;9.182;2023-09-19T10:49:52;21.80;99.90
4314;DHT22;2170;48.794;9.182;2023-09-19T10:52:22;22.20;99.90
4314;DHT22;2170;48.794;9.182;2023-09-19T10:54:53;22.70;99.90
4314;DHT22;2170;48.794;9.182;2023-09-19T10:57:24;23.10;99.90
4314;DHT22;2170;48.794;9.182;2023-09-19T11:00:03;23.40;99.90
4314;DHT22;2170;48.794;9.182;2023-09-19T11:03:17;23.10;99.90
4314;DHT22;2170;48.794;9.182;2023-09-19T11:06:01;22.90;99.90
4314;DHT22;2170;48.794;9.182;2023-09-19T11:08:30;23.00;99.90
4314;DHT22;2170;48.794;9.182;2023-09-19T11:10:59;22.90;99.90
4314;DHT22;2170;48.794;9.182;2023-09-19T11:13:30;22.60;99.90
4314;DHT22;2170;48.794;9.182;2023-09-19T11:16:04;22.70;99.90
4314;DHT22;2170;48.794;9.182;2023-09-19T11:18:53;22.60;99.90
4314;DHT22;2170;48.794;9.182;2023-09-19T11:21:40;22.70;99.90
4314;DHT22;2170;48.794;9.182;2023-09-19T11:24:32;22.90;99.90
4314;DHT22;2170;48.794;9.182;2023-09-19T11:27:17;23.00;99.90
4314;DHT22;2170;48.794;9.182;2023-09-19T11:29:45;23.70;99.90
4314;DHT22;2170;48.794;9.182;2023-09-19T11:32:14;23.80;99.90
4314;DHT22;2170;48.794;9.182;2023-09-19T11:34:44;23.50;99.90
4314;DHT22;2170;48.794;9.182;2023-09-19T11:40:44;23.80;99.90
4314;DHT22;2170;48.794;9.182;2023-09-19T11:43:30;24.40;99.90
4314;DHT22;2170;48.794;9.182;2023-09-19T11:48:43;23.80;99.90
4314;DHT22;2170;48.794;9.182;2023-09-19T11:51:15;23.90;99.90
4314;DHT22;2170;48.794;9.182;2023-09-19T11:53:48;24.50;99.90
4314;DHT22;2170;48.794;9.182;2023-09-19T11:56:17;24.90;99.90
4314;DHT22;2170;48.794;9.182;2023-09-19T11:58:44;24.80;99.90
4314;DHT22;2170;48.794;9.182;2023-09-19T12:01:22;25.00;99.90
4314;DHT22;2170;48.794;9.182;2023-09-19T12:03:53;25.00;99.90
4314;DHT22;2170;48.794;9.182;2023-09-19T12:06:23;24.50;99.90
4314;DHT22;2170;48.794;9.182;2023-09-19T12:08:50;24.70;99.90
4314;DHT22;2170;48.794;9.182;2023-09-19T12:11:19;24.90;99.90
4314;DHT22;2170;48.794;9.182;2023-09-19T12:13:49;24.70;99.90
4314;DHT22;2170;48.794;9.182;2023-09-19T12:16:19;24.70;99.90
4314;DHT22;2170;48.794;9.182;2023-09-19T12:18:49;24.80;99.90
4314;DHT22;2170;48.794;9.182;2023-09-19T12:21:23;25.30;99.90
4314;DHT22;2170;48.794;9.182;2023-09-19T12:24:06;25.30;99.90
4314;DHT22;2170;48.794;9.182;2023-09-19T12:26:41;25.10;99.90
4314;DHT22;2170;48.794;9.182;2023-09-19T12:29:15;25.20;99.90
4314;DHT22;2170;48.794;9.182;2023-09-19T12:31:52;25.20;99.90
4314;DHT22;2170;48.794;9.182;2023-09-19T12:34:23;24.90;99.90
4314;DHT22;2170;48.794;9.182;2023-09-19T12:37:04;24.80;99.90
4314;DHT22;2170;48.794;9.182;2023-09-19T12:42:04;25.60;99.90
4314;DHT22;2170;48.794;9.182;2023-09-19T12:44:34;25.90;99.90
4314;DHT22;2170;48.794;9.182;2023-09-19T12:47:13;26.50;99.90
4314;DHT22;2170;48.794;9.182;2023-09-19T12:50:10;26.80;99.90
4314;DHT22;2170;48.794;9.182;2023-09-19T12:52:43;27.20;99.90
4314;DHT22;2170;48.794;9.182;2023-09-19T12:55:23;26.70;99.90
4314;DHT22;2170;48.794;9.182;2023-09-19T12:58:02;26.40;99.90
4314;DHT22;2170;48.794;9.182;2023-09-19T13:00:36;26.10;99.90
4314;DHT22;2170;48.794;9.182;2023-09-19T13:03:18;26.10;99.90
4314;DHT22;2170;48.794;9.182;2023-09-19T13:05:51;26.30;99.90
4314;DHT22;2170;48.794;9.182;2023-09-19T13:08:21;26.40;99.90
4314;DHT22;2170;48.794;9.182;2023-09-19T13:11:09;26.70;99.90
4314;DHT22;2170;48.794;9.182;2023-09-19T13:13:39;26.90;99.90
4314;DHT22;2170;48.794;9.182;2023-09-19T13:16:07;26.50;99.90
4314;DHT22;2170;48.794;9.182;2023-09-19T13:18:46;26.20;99.90
4314;DHT22;2170;48.794;9.182;2023-09-19T13:21:16;25.80;99.90
4314;DHT22;2170;48.794;9.182;2023-09-19T13:23:50;25.20;99.90
4314;DHT22;2170;48.794;9.182;2023-09-19T13:26:17;25.10;99.90
4314;DHT22;2170;48.794;9.182;2023-09-19T13:28:44;25.00;99.90
4314;DHT22;2170;48.794;9.182;2023-09-19T13:31:13;25.20;99.90
4314;DHT22;2170;48.794;9.182;2023-09-19T13:33:44;25.30;99.90
4314;DHT22;2170;48.794;9.182;2023-09-19T13:36:12;25.30;99.90
4314;DHT22;2170;48.794;9.182;2023-09-19T13:38:39;25.40;99.90
4314;DHT22;2170;48.794;9.182;2023-09-19T13:41:08;24.80;99.90
4314;DHT22;2170;48.794;9.182;2023-09-19T13:43:35;25.20;99.90
4314;DHT22;2170;48.794;9.182;2023-09-19T13:46:02;25.50;99.90
4314;DHT22;2170;48.794;9.182;2023-09-19T13:48:29;25.80;99.90
4314;DHT22;2170;48.794;9.182;2023-09-19T13:50:57;25.80;99.90
4314;DHT22;2170;48.794;9.182;2023-09-19T13:53:24;25.60;99.90
4314;DHT22;2170;48.794;9.182;2023-09-19T13:55:51;25.30;99.90
4314;DHT22;2170;48.794;9.182;2023-09-19T13:58:18;25.00;99.90
4314;DHT22;2170;48.794;9.182;2023-09-19T14:00:44;24.60;99.90
4314;DHT22;2170;48.794;9.182;2023-09-19T14:03:11;24.70;99.90
4314;DHT22;2170;48.794;9.182;2023-09-19T14:05:38;24.70;99.90
4314;DHT22;2170;48.794;9.182;2023-09-19T14:08:06;24.60;99.90
4314;DHT22;2170;48.794;9.182;2023-09-19T14:10:34;25.00;99.90
4314;DHT22;2170;48.794;9.182;2023-09-19T14:13:02;25.10;99.90
4314;DHT22;2170;48.794;9.182;2023-09-19T14:15:29;25.20;99.90
4314;DHT22;2170;48.794;9.182;2023-09-19T14:17:56;25.10;99.90
4314;DHT22;2170;48.794;9.182;2023-09-19T14:20:25;24.90;99.90
4314;DHT22;2170;48.794;9.182;2023-09-19T14:22:52;24.70;99.90
4314;DHT22;2170;48.794;9.182;2023-09-19T14:25:20;24.80;99.90
4314;DHT22;2170;48.794;9.182;2023-09-19T14:27:48;24.90;99.90
4314;DHT22;2170;48.794;9.182;2023-09-19T14:30:15;25.10;99.90
4314;DHT22;2170;48.794;9.182;2023-09-19T14:32:42;25.00;99.90
4314;DHT22;2170;48.794;9.182;2023-09-19T14:35:08;24.30;99.90
4314;DHT22;2170;48.794;9.182;2023-09-19T14:37:36;24.10;99.90
4314;DHT22;2170;48.794;9.182;2023-09-19T14:40:04;24.10;99.90
4314;DHT22;2170;48.794;9.182;2023-09-19T14:42:36;24.10;99.90
4314;DHT22;2170;48.794;9.182;2023-09-19T14:45:04;24.20;99.90
4314;DHT22;2170;48.794;9.182;2023-09-19T14:47:34;24.20;99.90
4314;DHT22;2170;48.794;9.182;2023-09-19T14:50:01;24.30;99.90
4314;DHT22;2170;48.794;9.182;2023-09-19T14:52:32;24.50;99.90
4314;DHT22;2170;48.794;9.182;2023-09-19T14:55:01;24.90;99.90
4314;DHT22;2170;48.794;9.182;2023-09-19T14:57:33;25.00;99.90
4314;DHT22;2170;48.794;9.182;2023-09-19T15:00:05;25.20;99.90
4314;DHT22;2170;48.794;9.182;2023-09-19T15:02:38;25.20;99.90
4314;DHT22;2170;48.794;9.182;2023-09-19T15:05:06;24.80;99.90
4314;DHT22;2170;48.794;9.182;2023-09-19T15:07:33;24.90;99.90
4314;DHT22;2170;48.794;9.182;2023-09-19T15:10:02;24.90;99.90
4314;DHT22;2170;48.794;9.182;2023-09-19T15:12:32;24.80;99.90
4314;DHT22;2170;48.794;9.182;2023-09-19T15:15:02;24.70;99.90
4314;DHT22;2170;48.794;9.182;2023-09-19T15:17:30;24.60;99.90
4314;DHT22;2170;48.794;9.182;2023-09-19T15:19:57;24.60;99.90
4314;DHT22;2170;48.794;9.182;2023-09-19T15:22:23;24.40;99.90
4314;DHT22;2170;48.794;9.182;2023-09-19T15:24:50;24.50;99.90
4314;DHT22;2170;48.794;9.182;2023-09-19T15:27:17;24.50;99.90
4314;DHT22;2170;48.794;9.182;2023-09-19T15:29:45;24.20;99.90
4314;DHT22;2170;48.794;9.182;2023-09-19T15:32:13;24.30;99.90
4314;DHT22;2170;48.794;9.182;2023-09-19T15:34:40;24.30;99.90
4314;DHT22;2170;48.794;9.182;2023-09-19T15:37:06;24.50;99.90
4314;DHT22;2170;48.794;9.182;2023-09-19T15:39:33;24.60;99.90
4314;DHT22;2170;48.794;9.182;2023-09-19T15:42:00;24.60;99.90
4314;DHT22;2170;48.794;9.182;2023-09-19T15:44:26;24.40;99.90
4314;DHT22;2170;48.794;9.182;2023-09-19T15:46:53;24.00;99.90
4314;DHT22;2170;48.794;9.182;2023-09-19T15:49:21;23.90;99.90
4314;DHT22;2170;48.794;9.182;2023-09-19T15:51:48;24.00;99.90
4314;DHT22;2170;48.794;9.182;2023-09-19T15:54:15;23.90;99.90
4314;DHT22;2170;48.794;9.182;2023-09-19T15:56:43;23.80;99.90
4314;DHT22;2170;48.794;9.182;2023-09-19T15:59:10;23.70;99.90
4314;DHT22;2170;48.794;9.182;2023-09-19T16:01:38;23.90;99.90
4314;DHT22;2170;48.794;9.182;2023-09-19T16:04:06;24.00;99.90
4314;DHT22;2170;48.794;9.182;2023-09-19T16:06:36;24.20;99.90
4314;DHT22;2170;48.794;9.182;2023-09-19T16:09:04;24.10;99.90
4314;DHT22;2170;48.794;9.182;2023-09-19T16:11:33;23.80;99.90
4314;DHT22;2170;48.794;9.182;2023-09-19T16:14:00;23.70;99.90
4314;DHT22;2170;48.794;9.182;2023-09-19T16:16:28;23.70;99.90
4314;DHT22;2170;48.794;9.182;2023-09-19T16:18:58;23.60;99.90
4314;DHT22;2170;48.794;9.182;2023-09-19T16:21:27;23.60;99.90
4314;DHT22;2170;48.794;9.182;2023-09-19T16:23:56;23.40;99.90
4314;DHT22;2170;48.794;9.182;2023-09-19T16:26:24;23.10;99.90